Terminal Aerodrome Forecast
Issued by NWS

Home | Current Version | Previous Version | Text Only | Print | Product List | Glossary On
Versions: 1 2 3 4 5 6 7 8 9 10 11 12 13 14 15 16 17
000
FTUS46 KEKA 180523
TAFCEC
TAF
KCEC 180523Z 1806/1906 10006KT P6SM BKN035 BKN060
     FM180900 15010KT P6SM FEW025 BKN035 BKN060
     FM182100 15016G22KT P6SM OVC050
     FM190000 17018G26KT 6SM -RA BR SCT035 OVC050=

USA.gov is the U.S. government's official web portal to all federal, state and local government web resources and services.